Time;durP1;ratioP1;P1;durP2;ratioP2;P2;SDS_P1;SDS_P2;PMS_P1;PMS_P2;Temp;Humidity;BMP_temperature;BMP_pressure;BME280_temperature;BME280_humidity;BME280_pressure;Samples;Min_cycle;Max_cycle;Signal;HPM_P1;HPM_P2
2022/12/12 00:01:35;;;;;;;38.42;19.67;;;1.50;99.90;;;;;;5062050;28;20186;-77
2022/12/12 00:04:01;;;;;;;35.63;19.08;;;1.50;99.90;;;;;;5059355;28;20185;-74
2022/12/12 00:06:27;;;;;;;36.50;19.00;;;1.50;99.90;;;;;;5066338;28;20274;-74
2022/12/12 00:08:53;;;;;;;38.08;19.02;;;1.50;99.90;;;;;;5069628;28;20189;-75
2022/12/12 00:11:21;;;;;;;36.95;18.52;;;1.60;99.90;;;;;;5071992;28;20171;-73
2022/12/12 00:13:47;;;;;;;34.00;17.95;;;1.50;99.90;;;;;;5059356;28;20209;-80
2022/12/12 00:16:13;;;;;;;34.60;18.27;;;1.50;99.90;;;;;;5061683;28;20338;-75
2022/12/12 00:18:39;;;;;;;32.45;17.60;;;1.50;99.90;;;;;;5071480;28;20175;-77
2022/12/12 00:21:11;;;;;;;33.67;16.45;;;1.50;99.90;;;;;;5070386;28;20229;-75
2022/12/12 00:23:36;;;;;;;36.65;18.05;;;1.50;99.90;;;;;;5064855;28;20217;-80
2022/12/12 00:26:07;;;;;;;33.90;18.35;;;1.50;99.90;;;;;;5083228;28;20277;-74
2022/12/12 00:28:33;;;;;;;33.90;18.48;;;1.50;99.90;;;;;;5070899;28;20198;-74
2022/12/12 00:30:59;;;;;;;34.65;18.52;;;1.50;99.90;;;;;;5073279;28;20182;-74
2022/12/12 00:33:25;;;;;;;34.45;19.05;;;1.50;99.90;;;;;;5067667;28;20241;-74
2022/12/12 00:35:52;;;;;;;34.28;17.95;;;1.50;99.90;;;;;;5060938;28;20619;-74
2022/12/12 00:38:20;;;;;;;36.53;18.25;;;1.50;99.90;;;;;;5073012;28;20194;-74
2022/12/12 00:40:46;;;;;;;35.75;17.80;;;1.50;99.90;;;;;;5071330;28;20673;-74
2022/12/12 00:43:12;;;;;;;35.35;18.42;;;1.50;99.90;;;;;;5069806;28;20186;-74
2022/12/12 00:45:39;;;;;;;35.17;17.85;;;1.60;99.90;;;;;;5059918;28;21114;-75
2022/12/12 00:48:05;;;;;;;35.90;19.20;;;1.50;99.90;;;;;;5071845;28;20559;-74
2022/12/12 00:50:31;;;;;;;35.85;18.35;;;1.50;99.90;;;;;;5069987;28;20198;-74
2022/12/12 00:52:57;;;;;;;33.92;17.13;;;1.60;99.90;;;;;;5065716;28;20203;-73
2022/12/12 00:55:24;;;;;;;35.50;18.73;;;1.50;99.90;;;;;;5066240;28;20244;-73
2022/12/12 00:57:50;;;;;;;34.75;18.88;;;1.60;99.90;;;;;;5072979;28;20181;-75
2022/12/12 01:00:16;;;;;;;35.58;18.90;;;1.60;99.90;;;;;;5068729;28;20900;-75
2022/12/12 01:02:42;;;;;;;34.08;18.45;;;1.60;99.90;;;;;;5071476;28;20250;-75
2022/12/12 01:05:08;;;;;;;33.30;17.58;;;1.60;99.90;;;;;;5066526;28;20278;-74
2022/12/12 01:07:34;;;;;;;34.03;18.17;;;1.60;99.90;;;;;;5064593;28;20556;-74
2022/12/12 01:10:00;;;;;;;35.20;18.05;;;1.60;99.90;;;;;;5070958;28;20269;-76
2022/12/12 01:12:26;;;;;;;34.35;17.63;;;1.60;99.90;;;;;;5072873;28;20728;-74
2022/12/12 01:14:51;;;;;;;34.85;19.33;;;1.60;99.90;;;;;;5067378;28;20193;-82
2022/12/12 01:17:17;;;;;;;37.85;19.20;;;1.60;99.90;;;;;;5069463;28;20216;-74
2022/12/12 01:19:43;;;;;;;38.67;18.30;;;1.60;99.90;;;;;;5070793;28;20274;-76
2022/12/12 01:22:09;;;;;;;35.03;18.63;;;1.60;99.90;;;;;;5071744;28;20596;-74
2022/12/12 01:24:35;;;;;;;34.15;17.67;;;1.60;99.90;;;;;;5058358;28;20187;-75
2022/12/12 01:27:00;;;;;;;32.22;16.52;;;1.60;99.90;;;;;;5062650;28;20228;-74
2022/12/12 01:29:26;;;;;;;32.58;17.95;;;1.60;99.90;;;;;;5071051;28;20214;-75
2022/12/12 01:31:52;;;;;;;35.28;17.73;;;1.60;99.90;;;;;;5071788;28;20243;-74
2022/12/12 01:34:18;;;;;;;32.97;16.98;;;1.60;99.90;;;;;;5064389;28;20263;-75
2022/12/12 01:36:44;;;;;;;36.90;17.73;;;1.60;99.90;;;;;;5065734;28;20189;-75
2022/12/12 01:39:09;;;;;;;34.08;17.70;;;1.60;99.90;;;;;;5066845;28;20180;-74
2022/12/12 01:41:35;;;;;;;35.70;16.77;;;1.50;99.90;;;;;;5051162;28;20195;-74
2022/12/12 01:44:06;;;;;;;34.58;17.05;;;1.60;99.90;;;;;;5053033;28;20647;-73
2022/12/12 01:46:43;;;;;;;35.17;17.45;;;1.60;99.90;;;;;;5060347;28;20189;-73
2022/12/12 01:49:24;;;;;;;31.60;17.02;;;1.60;99.90;;;;;;5070809;28;20540;-74
2022/12/12 01:51:56;;;;;;;34.38;17.92;;;1.60;99.90;;;;;;5072181;28;20185;-74
2022/12/12 01:54:44;;;;;;;34.33;18.02;;;1.60;99.90;;;;;;5067240;28;20638;-75
2022/12/12 01:57:15;;;;;;;32.78;17.42;;;1.50;99.90;;;;;;5058941;28;20228;-77
2022/12/12 01:59:41;;;;;;;35.47;18.50;;;1.60;99.90;;;;;;5069332;28;20173;-74
2022/12/12 02:02:08;;;;;;;29.50;16.58;;;1.60;99.90;;;;;;5071440;28;20190;-76
2022/12/12 02:04:34;;;;;;;33.63;16.95;;;1.60;99.90;;;;;;5071295;28;20545;-74
2022/12/12 02:07:01;;;;;;;33.55;17.13;;;1.50;99.90;;;;;;5068998;28;20648;-74
2022/12/12 02:09:27;;;;;;;38.38;18.10;;;1.50;99.90;;;;;;5066197;28;20269;-74
2022/12/12 02:11:55;;;;;;;35.88;17.85;;;1.50;99.90;;;;;;5088000;28;20301;-78
2022/12/12 02:14:34;;;;;;;39.35;18.85;;;1.50;99.90;;;;;;5064715;28;20201;-74
2022/12/12 02:17:26;;;;;;;36.45;19.30;;;1.50;99.90;;;;;;5072387;28;20162;-74
2022/12/12 02:20:13;;;;;;;37.53;18.70;;;1.60;99.90;;;;;;5040342;28;20203;-76
2022/12/12 02:23:03;;;;;;;35.90;18.42;;;1.50;99.90;;;;;;5065253;28;20231;-73
2022/12/12 02:25:44;;;;;;;33.53;17.73;;;1.50;99.90;;;;;;5056289;28;20302;-75
2022/12/12 02:28:26;;;;;;;35.90;18.95;;;1.50;99.90;;;;;;5052079;28;20225;-74
2022/12/12 02:30:55;;;;;;;33.40;17.95;;;1.50;99.90;;;;;;5071601;28;20186;-74
2022/12/12 02:33:36;;;;;;;35.38;18.33;;;1.50;99.90;;;;;;5074197;28;20201;-74
2022/12/12 02:36:18;;;;;;;32.25;17.60;;;1.50;99.90;;;;;;5055549;28;20249;-75
2022/12/12 02:39:08;;;;;;;34.67;18.35;;;1.50;99.90;;;;;;5056059;28;20274;-74
2022/12/12 02:41:46;;;;;;;32.83;17.23;;;1.50;99.90;;;;;;5061450;28;20182;-78
2022/12/12 02:44:32;;;;;;;32.97;17.20;;;1.50;99.90;;;;;;5067248;28;20170;-74
2022/12/12 02:47:18;;;;;;;33.28;16.45;;;1.50;99.90;;;;;;5054872;28;20250;-74
2022/12/12 02:50:07;;;;;;;31.70;16.35;;;1.50;99.90;;;;;;5065792;28;20266;-75
2022/12/12 02:52:33;;;;;;;32.08;16.50;;;1.50;99.90;;;;;;5070278;28;20225;-74
2022/12/12 02:54:59;;;;;;;29.65;16.13;;;1.50;99.90;;;;;;5069111;28;20194;-74
2022/12/12 02:57:26;;;;;;;30.77;16.45;;;1.50;99.90;;;;;;5076120;28;20219;-74
2022/12/12 03:00:00;;;;;;;30.88;15.95;;;1.50;99.90;;;;;;5073869;28;20202;-74
2022/12/12 03:07:45;;;;;;;32.67;16.65;;;1.50;99.90;;;;;;5069859;28;20182;-75
2022/12/12 03:09:31;;;;;;;32.03;17.30;;;1.60;99.90;;;;;;5069386;28;20575;-75
2022/12/12 03:12:10;;;;;;;32.22;17.17;;;1.60;99.90;;;;;;5063410;28;20289;-75
2022/12/12 03:14:40;;;;;;;32.05;17.33;;;1.60;99.90;;;;;;5062563;28;20612;-74
2022/12/12 03:17:50;;;;;;;33.22;15.50;;;1.60;99.90;;;;;;5071392;28;20178;-77
2022/12/12 03:20:24;;;;;;;35.63;16.20;;;1.60;99.90;;;;;;4974047;28;20197;-75
2022/12/12 03:23:03;;;;;;;32.58;16.63;;;1.60;99.90;;;;;;4992518;28;20189;-74
2022/12/12 03:25:40;;;;;;;31.98;15.65;;;1.50;99.90;;;;;;5045015;28;20218;-75
2022/12/12 03:28:16;;;;;;;31.08;16.08;;;1.50;99.90;;;;;;5074505;28;20488;-74
2022/12/12 03:30:45;;;;;;;29.60;15.68;;;1.50;99.90;;;;;;5062775;28;20699;-82
2022/12/12 03:33:30;;;;;;;30.58;15.88;;;1.50;99.90;;;;;;5070159;28;20210;-75
2022/12/12 03:36:07;;;;;;;33.13;16.40;;;1.50;99.90;;;;;;5071886;28;20186;-75
2022/12/12 03:38:38;;;;;;;31.48;16.50;;;1.50;99.90;;;;;;5072265;28;20205;-74
2022/12/12 03:41:11;;;;;;;30.15;15.45;;;1.50;99.90;;;;;;5073419;28;20197;-74
2022/12/12 03:43:43;;;;;;;29.60;15.48;;;1.50;99.90;;;;;;5062150;28;20209;-73
2022/12/12 03:46:22;;;;;;;29.67;15.75;;;1.60;99.90;;;;;;5065727;28;20175;-74
2022/12/12 03:49:07;;;;;;;27.02;14.82;;;1.50;99.90;;;;;;5055404;28;20176;-74
2022/12/12 03:51:39;;;;;;;31.20;14.65;;;1.50;99.90;;;;;;5065515;28;20257;-74
2022/12/12 03:54:38;;;;;;;31.20;16.35;;;1.60;99.90;;;;;;5069481;28;20195;-74
2022/12/12 03:57:29;;;;;;;31.80;16.45;;;1.60;99.90;;;;;;5067454;28;20178;-74
2022/12/12 04:00:04;;;;;;;31.55;16.98;;;1.50;99.90;;;;;;5064395;28;20178;-75
2022/12/12 04:02:46;;;;;;;30.92;15.88;;;1.60;99.90;;;;;;5053923;28;20620;-74
2022/12/12 04:06:25;;;;;;;30.00;15.57;;;1.50;99.90;;;;;;5066588;28;20182;-74
2022/12/12 04:08:32;;;;;;;33.50;16.45;;;1.50;99.90;;;;;;5061249;28;20179;-77
2022/12/12 04:14:40;;;;;;;30.40;15.88;;;1.50;99.90;;;;;;5071577;28;20203;-75
2022/12/12 04:17:10;;;;;;;30.33;15.35;;;1.50;99.90;;;;;;5043274;28;20195;-74
2022/12/12 04:25:29;;;;;;;29.48;14.98;;;1.50;99.90;;;;;;5072559;28;20299;-74
2022/12/12 04:28:03;;;;;;;30.45;15.07;;;1.40;99.90;;;;;;5072038;28;20189;-80
2022/12/12 04:30:31;;;;;;;29.20;15.57;;;1.50;99.90;;;;;;5084415;28;20545;-75
2022/12/12 04:33:12;;;;;;;29.45;14.82;;;1.50;99.90;;;;;;5064894;28;20275;-75
2022/12/12 04:35:42;;;;;;;29.27;15.80;;;1.50;99.90;;;;;;5071595;28;20303;-74
2022/12/12 04:38:14;;;;;;;30.83;16.17;;;1.50;99.90;;;;;;5073145;28;20510;-76
2022/12/12 04:40:44;;;;;;;32.90;15.57;;;1.50;99.90;;;;;;5070939;28;20254;-75
2022/12/12 04:43:21;;;;;;;31.83;15.07;;;1.50;99.90;;;;;;5071543;28;20255;-74
2022/12/12 04:45:53;;;;;;;31.50;15.93;;;1.50;99.90;;;;;;5060519;28;20193;-74
2022/12/12 04:48:25;;;;;;;31.33;15.65;;;1.60;99.90;;;;;;5053183;28;20163;-74
2022/12/12 04:50:52;;;;;;;32.35;16.08;;;1.50;99.90;;;;;;5073071;28;20170;-76
2022/12/12 04:53:26;;;;;;;34.17;17.77;;;1.50;99.90;;;;;;5071294;28;20206;-75
2022/12/12 04:55:56;;;;;;;30.27;15.45;;;1.50;99.90;;;;;;5060160;28;20192;-78
2022/12/12 04:58:23;;;;;;;28.88;15.57;;;1.50;99.90;;;;;;5070805;28;20174;-75
2022/12/12 05:01:14;;;;;;;28.65;14.93;;;1.50;99.90;;;;;;5072573;28;20193;-74
2022/12/12 05:03:52;;;;;;;27.17;15.52;;;1.50;99.90;;;;;;5071689;28;20690;-75
2022/12/12 05:06:25;;;;;;;29.58;15.70;;;1.50;99.90;;;;;;5073455;28;20228;-75
2022/12/12 05:08:53;;;;;;;28.65;14.95;;;1.50;99.90;;;;;;5057444;28;20182;-75
2022/12/12 05:11:20;;;;;;;29.95;15.85;;;1.50;99.90;;;;;;5058839;28;21186;-75
2022/12/12 05:13:48;;;;;;;31.38;16.85;;;1.50;99.90;;;;;;5069640;28;20229;-74
2022/12/12 05:16:33;;;;;;;32.55;16.23;;;1.50;99.90;;;;;;5071157;28;20657;-74
2022/12/12 05:18:59;;;;;;;33.15;14.75;;;1.50;99.90;;;;;;5083399;28;20175;-75
2022/12/12 05:21:25;;;;;;;29.65;15.70;;;1.50;99.90;;;;;;5073386;28;20606;-75
2022/12/12 05:23:51;;;;;;;34.58;17.38;;;1.50;99.90;;;;;;5063952;28;20633;-74
2022/12/12 05:26:31;;;;;;;30.75;15.45;;;1.50;99.90;;;;;;5067919;28;20301;-74
2022/12/12 05:28:59;;;;;;;24.52;13.60;;;1.50;99.90;;;;;;5071028;28;20615;-75
2022/12/12 05:31:25;;;;;;;29.05;14.98;;;1.50;99.90;;;;;;5069951;28;20193;-74
2022/12/12 05:33:51;;;;;;;29.65;15.68;;;1.50;99.90;;;;;;5067931;28;20337;-74
2022/12/12 05:36:17;;;;;;;29.60;15.60;;;1.50;99.90;;;;;;5052209;28;20240;-74
2022/12/12 05:38:43;;;;;;;29.45;15.55;;;1.50;99.90;;;;;;5061399;28;20178;-75
2022/12/12 05:41:10;;;;;;;27.27;15.18;;;1.50;99.90;;;;;;5063474;28;20246;-78
2022/12/12 05:43:36;;;;;;;27.42;15.20;;;1.50;99.90;;;;;;5067930;28;20656;-74
2022/12/12 05:46:02;;;;;;;28.60;14.88;;;1.60;99.90;;;;;;5069876;28;20529;-79
2022/12/12 05:48:28;;;;;;;26.63;14.23;;;1.50;99.90;;;;;;5070472;28;20186;-81
2022/12/12 05:50:54;;;;;;;30.42;16.25;;;1.50;99.90;;;;;;5067941;28;20193;-74
2022/12/12 05:53:20;;;;;;;27.88;14.88;;;1.50;99.90;;;;;;5071792;28;20221;-74
2022/12/12 05:55:50;;;;;;;28.67;15.23;;;1.50;99.90;;;;;;5069881;28;20232;-75
2022/12/12 05:58:16;;;;;;;32.20;15.55;;;1.50;99.90;;;;;;5070474;28;20175;-74
2022/12/12 06:00:42;;;;;;;26.98;14.05;;;1.50;99.90;;;;;;5066313;28;20179;-75
2022/12/12 06:03:08;;;;;;;27.05;14.38;;;1.50;99.90;;;;;;5059320;28;20248;-74
2022/12/12 06:05:34;;;;;;;31.08;17.13;;;1.50;99.90;;;;;;5061074;28;20206;-75
2022/12/12 06:07:59;;;;;;;28.58;14.45;;;1.50;99.90;;;;;;5065044;28;20526;-76
2022/12/12 06:10:26;;;;;;;27.27;14.93;;;1.50;99.90;;;;;;5071059;28;20308;-75
2022/12/12 06:12:51;;;;;;;27.17;14.55;;;1.50;99.90;;;;;;5061708;28;20198;-81
2022/12/12 06:15:17;;;;;;;28.40;14.60;;;1.50;99.90;;;;;;5073417;28;20187;-74
2022/12/12 06:17:43;;;;;;;30.40;15.70;;;1.50;99.90;;;;;;5075417;28;20226;-75
2022/12/12 06:20:09;;;;;;;27.38;15.32;;;1.50;99.90;;;;;;5068839;28;20180;-74
2022/12/12 06:22:35;;;;;;;29.35;15.48;;;1.50;99.90;;;;;;5059610;28;20656;-78
2022/12/12 06:25:01;;;;;;;31.75;16.13;;;1.50;99.90;;;;;;5070292;28;20231;-75
2022/12/12 06:27:27;;;;;;;29.65;15.32;;;1.50;99.90;;;;;;5075971;28;20582;-75
2022/12/12 06:29:53;;;;;;;31.60;16.02;;;1.40;99.90;;;;;;5073535;28;20236;-74
2022/12/12 06:32:19;;;;;;;31.60;15.63;;;1.40;99.90;;;;;;5072201;28;20210;-75
2022/12/12 06:34:44;;;;;;;29.45;15.18;;;1.40;99.90;;;;;;5074156;28;20191;-75
2022/12/12 06:37:10;;;;;;;28.95;14.95;;;1.40;99.90;;;;;;5072198;28;20232;-75
2022/12/12 06:39:36;;;;;;;28.58;14.85;;;1.40;99.90;;;;;;5072858;28;20185;-74
2022/12/12 06:42:02;;;;;;;31.00;15.38;;;1.40;99.90;;;;;;5057568;28;20187;-75
2022/12/12 06:44:28;;;;;;;28.70;14.57;;;1.50;99.90;;;;;;5055478;28;20274;-75
2022/12/12 06:46:54;;;;;;;27.48;14.93;;;1.50;99.90;;;;;;5057666;28;20176;-74
2022/12/12 06:49:19;;;;;;;28.02;14.93;;;1.50;99.90;;;;;;5061441;28;20270;-78
2022/12/12 06:51:47;;;;;;;31.52;16.15;;;1.50;99.90;;;;;;5070493;28;20183;-75
2022/12/12 06:54:15;;;;;;;32.72;16.35;;;1.50;99.90;;;;;;5073139;28;20197;-74
2022/12/12 06:56:41;;;;;;;29.63;15.05;;;1.50;99.90;;;;;;5075607;28;20178;-77
2022/12/12 06:59:08;;;;;;;30.20;15.95;;;1.50;99.90;;;;;;5060538;28;20189;-81
2022/12/12 07:01:34;;;;;;;30.65;16.98;;;1.50;99.90;;;;;;5065993;28;20178;-74
2022/12/12 07:04:00;;;;;;;28.80;15.85;;;1.50;99.90;;;;;;5073043;28;20178;-74
2022/12/12 07:06:25;;;;;;;32.13;16.17;;;1.50;99.90;;;;;;5073277;28;20239;-74
2022/12/12 07:08:51;;;;;;;29.85;15.30;;;1.50;99.90;;;;;;5074176;28;20185;-74
2022/12/12 07:11:21;;;;;;;32.03;16.80;;;1.50;99.90;;;;;;5066121;28;20717;-80
2022/12/12 07:13:48;;;;;;;29.13;15.38;;;1.50;99.90;;;;;;5066676;28;20304;-76
2022/12/12 07:16:14;;;;;;;30.45;15.48;;;1.60;99.90;;;;;;5073704;28;20227;-76
2022/12/12 07:18:40;;;;;;;31.20;16.50;;;1.50;99.90;;;;;;5072092;28;20174;-77
2022/12/12 07:21:08;;;;;;;31.77;16.00;;;1.50;99.90;;;;;;5072291;28;20178;-75
2022/12/12 07:23:34;;;;;;;32.22;15.93;;;1.50;99.90;;;;;;5071112;28;20182;-77
2022/12/12 07:26:05;;;;;;;30.05;15.63;;;1.50;99.90;;;;;;5060260;28;20250;-75
2022/12/12 07:28:31;;;;;;;31.45;15.75;;;1.50;99.90;;;;;;5075020;28;20208;-78
2022/12/12 07:30:57;;;;;;;28.27;15.48;;;1.50;99.90;;;;;;5067545;28;20183;-75
2022/12/12 07:33:23;;;;;;;32.95;16.88;;;1.50;99.90;;;;;;5067923;28;20210;-76
2022/12/12 07:35:49;;;;;;;31.17;16.52;;;1.50;99.90;;;;;;5060033;28;21975;-75
2022/12/12 07:38:14;;;;;;;38.85;16.88;;;1.50;99.90;;;;;;5059020;28;20175;-75
2022/12/12 07:40:40;;;;;;;31.45;16.70;;;1.50;99.90;;;;;;5069219;28;20269;-76
2022/12/12 07:43:06;;;;;;;33.25;18.05;;;1.60;99.90;;;;;;5071022;28;20182;-75
2022/12/12 07:45:32;;;;;;;29.50;16.80;;;1.50;99.90;;;;;;5069627;28;20194;-75
2022/12/12 07:47:58;;;;;;;34.22;17.70;;;1.50;99.90;;;;;;5070298;28;20193;-75
2022/12/12 07:50:24;;;;;;;34.00;17.25;;;1.50;99.90;;;;;;5067865;28;20187;-77
2022/12/12 07:52:49;;;;;;;34.47;17.13;;;1.60;99.90;;;;;;5068302;28;20215;-77
2022/12/12 07:55:15;;;;;;;32.00;17.05;;;1.60;99.90;;;;;;5066075;28;20183;-76
2022/12/12 07:57:41;;;;;;;33.83;17.02;;;1.60;99.90;;;;;;5071405;28;20190;-76
2022/12/12 08:00:09;;;;;;;35.17;16.92;;;1.60;99.90;;;;;;5060678;28;20206;-76
2022/12/12 08:02:38;;;;;;;33.53;18.63;;;1.60;99.90;;;;;;5066712;28;20194;-76
2022/12/12 08:05:04;;;;;;;31.88;16.95;;;1.60;99.90;;;;;;5071086;28;20653;-76
2022/12/12 08:07:30;;;;;;;33.97;18.77;;;1.70;99.90;;;;;;5093892;28;20189;-75
2022/12/12 08:09:55;;;;;;;37.50;18.75;;;1.60;99.90;;;;;;5069185;28;20186;-75
2022/12/12 08:12:21;;;;;;;34.53;17.85;;;1.60;99.90;;;;;;5054069;28;20269;-76
2022/12/12 08:14:47;;;;;;;30.38;16.85;;;1.70;99.90;;;;;;5063593;28;20270;-75
2022/12/12 08:17:13;;;;;;;28.92;16.20;;;1.70;99.90;;;;;;5069705;28;20619;-75
2022/12/12 08:19:38;;;;;;;31.35;16.38;;;1.70;99.90;;;;;;5071457;28;20614;-76
2022/12/12 08:22:04;;;;;;;30.42;16.05;;;1.70;99.90;;;;;;5067669;28;20194;-75
2022/12/12 08:24:30;;;;;;;31.50;16.52;;;1.70;99.90;;;;;;5070956;28;20269;-75
2022/12/12 08:26:55;;;;;;;30.30;16.70;;;1.70;99.90;;;;;;5059641;28;20682;-75
2022/12/12 08:29:21;;;;;;;31.23;16.42;;;1.70;99.90;;;;;;5068741;28;20220;-77
2022/12/12 08:31:47;;;;;;;27.70;15.93;;;1.70;99.90;;;;;;5071510;28;20178;-76
2022/12/12 08:34:13;;;;;;;30.77;15.52;;;1.70;99.90;;;;;;5068866;28;20277;-77
2022/12/12 08:36:38;;;;;;;29.38;16.70;;;1.70;99.90;;;;;;5069854;28;20179;-78
2022/12/12 08:39:08;;;;;;;29.70;16.40;;;1.70;99.90;;;;;;5072463;28;20179;-76
2022/12/12 08:41:35;;;;;;;28.92;15.63;;;1.70;99.90;;;;;;5072208;28;20186;-76
2022/12/12 08:44:01;;;;;;;28.13;15.48;;;1.80;99.90;;;;;;5070960;28;20232;-76
2022/12/12 08:46:27;;;;;;;28.73;15.40;;;1.80;99.90;;;;;;5068865;28;20537;-81
2022/12/12 08:48:52;;;;;;;27.65;15.15;;;1.80;99.90;;;;;;5058822;28;20583;-75
2022/12/12 08:51:19;;;;;;;30.55;16.23;;;1.80;99.90;;;;;;5060064;28;20202;-76
2022/12/12 08:53:50;;;;;;;32.10;15.50;;;1.80;99.90;;;;;;5065856;28;20210;-75
2022/12/12 08:56:16;;;;;;;28.30;16.10;;;1.80;99.90;;;;;;5063397;28;20197;-74
2022/12/12 08:58:43;;;;;;;31.38;16.05;;;1.80;99.90;;;;;;5071685;28;20259;-76
2022/12/12 09:01:11;;;;;;;29.73;15.82;;;1.80;99.90;;;;;;5072426;28;20175;-76
2022/12/12 09:03:36;;;;;;;29.27;16.20;;;1.80;99.90;;;;;;5063099;28;20175;-75
2022/12/12 09:06:05;;;;;;;27.10;16.23;;;1.80;99.90;;;;;;5077057;28;20290;-76
2022/12/12 09:08:31;;;;;;;29.13;16.10;;;1.90;99.90;;;;;;5072173;28;20178;-77
2022/12/12 09:10:58;;;;;;;31.33;16.73;;;1.90;99.90;;;;;;5072959;28;20181;-76
2022/12/12 09:13:24;;;;;;;31.48;16.55;;;1.90;99.90;;;;;;5071372;28;20213;-77
2022/12/12 09:15:50;;;;;;;26.80;15.20;;;1.90;99.90;;;;;;5060718;28;20183;-76
2022/12/12 09:18:18;;;;;;;30.50;16.58;;;2.00;99.90;;;;;;5072056;28;20175;-76
2022/12/12 09:20:51;;;;;;;32.85;17.08;;;1.90;99.90;;;;;;5072225;28;20198;-76
2022/12/12 09:23:19;;;;;;;31.35;16.73;;;2.00;99.90;;;;;;5071114;28;20721;-76
2022/12/12 09:25:45;;;;;;;28.50;15.85;;;2.00;99.90;;;;;;5061994;28;20225;-79
2022/12/12 09:28:12;;;;;;;30.75;16.50;;;2.10;99.90;;;;;;5072689;28;20656;-75
2022/12/12 09:30:39;;;;;;;32.08;17.60;;;2.10;99.90;;;;;;5071329;28;20190;-79
2022/12/12 09:33:05;;;;;;;29.00;16.33;;;2.10;99.90;;;;;;5073067;28;20194;-75
2022/12/12 09:35:31;;;;;;;34.47;17.60;;;2.20;99.90;;;;;;5067897;28;20186;-79
2022/12/12 09:37:56;;;;;;;32.58;16.70;;;2.20;99.90;;;;;;5066770;28;20186;-76
2022/12/12 09:40:52;;;;;;;29.02;16.55;;;2.20;99.90;;;;;;5057731;28;20187;-75
2022/12/12 09:43:21;;;;;;;32.35;16.80;;;2.20;99.90;;;;;;5037893;28;20198;-76
2022/12/12 09:45:47;;;;;;;33.97;16.88;;;2.20;99.90;;;;;;5060698;28;20186;-76
2022/12/12 09:48:32;;;;;;;27.17;14.90;;;2.30;99.90;;;;;;5069846;28;20194;-76
2022/12/12 09:50:58;;;;;;;29.85;16.65;;;2.30;99.90;;;;;;5076723;28;20232;-76
2022/12/12 09:53:25;;;;;;;28.80;16.33;;;2.30;99.90;;;;;;5076907;28;20214;-76
2022/12/12 09:56:13;;;;;;;30.27;16.27;;;2.30;99.90;;;;;;5075300;28;20194;-76
2022/12/12 09:59:02;;;;;;;28.92;16.10;;;2.30;99.90;;;;;;5069099;28;20182;-75
2022/12/12 10:01:40;;;;;;;29.45;16.13;;;2.30;99.90;;;;;;5072610;28;20179;-79
2022/12/12 10:04:35;;;;;;;29.52;16.02;;;2.40;99.90;;;;;;5064890;28;20183;-75
2022/12/12 10:07:46;;;;;;;26.70;15.07;;;2.50;99.90;;;;;;5069976;28;20174;-75
2022/12/12 10:10:39;;;;;;;27.63;15.63;;;2.60;99.90;;;;;;5072480;28;20243;-76
2022/12/12 10:13:13;;;;;;;27.25;15.27;;;2.70;99.90;;;;;;5066509;28;20237;-78
2022/12/12 10:15:55;;;;;;;28.40;16.02;;;2.80;99.90;;;;;;5065184;28;20228;-76
2022/12/12 10:18:38;;;;;;;26.52;15.25;;;2.80;99.90;;;;;;5066719;28;20557;-76
2022/12/12 10:21:13;;;;;;;26.73;15.35;;;2.90;99.90;;;;;;5076357;28;20174;-74
2022/12/12 10:23:49;;;;;;;24.70;15.13;;;2.90;99.90;;;;;;5074891;28;20216;-75
2022/12/12 10:26:16;;;;;;;28.25;15.85;;;3.00;99.90;;;;;;5071445;28;20229;-75
2022/12/12 10:28:43;;;;;;;24.70;15.25;;;3.10;99.90;;;;;;5072453;28;20187;-78
2022/12/12 10:31:33;;;;;;;25.33;14.85;;;3.20;99.90;;;;;;5061780;28;20178;-79
2022/12/12 10:34:30;;;;;;;25.33;14.98;;;3.30;99.90;;;;;;5074407;28;20221;-75
2022/12/12 10:37:17;;;;;;;25.92;15.30;;;3.50;99.90;;;;;;5075666;28;20155;-79
2022/12/12 10:39:55;;;;;;;24.40;14.63;;;3.80;99.90;;;;;;5069135;28;20182;-75
2022/12/12 10:42:35;;;;;;;26.92;15.35;;;4.20;99.90;;;;;;5071511;28;20718;-77
2022/12/12 10:45:38;;;;;;;25.35;15.00;;;4.50;99.90;;;;;;5076007;28;20206;-79
2022/12/12 10:48:04;;;;;;;24.13;14.15;;;4.90;99.90;;;;;;5056696;28;20306;-78
2022/12/12 10:50:48;;;;;;;25.98;14.45;;;5.00;99.90;;;;;;5079892;28;20191;-75
2022/12/12 10:53:14;;;;;;;24.98;14.35;;;5.30;99.90;;;;;;5066028;28;20229;-74
2022/12/12 10:55:48;;;;;;;22.45;13.88;;;5.40;99.90;;;;;;5074355;28;20641;-77
2022/12/12 10:58:16;;;;;;;23.50;14.82;;;5.60;99.90;;;;;;5075264;28;20222;-77
2022/12/12 11:00:44;;;;;;;23.17;14.48;;;5.80;99.90;;;;;;5068476;28;20179;-76
2022/12/12 11:03:25;;;;;;;25.60;14.68;;;5.90;99.90;;;;;;5067645;28;20221;-77
2022/12/12 11:05:52;;;;;;;23.80;15.10;;;6.00;99.90;;;;;;5086675;28;20210;-76
2022/12/12 11:08:31;;;;;;;20.55;13.57;;;5.90;99.90;;;;;;5074745;28;20186;-76
2022/12/12 11:11:27;;;;;;;23.75;15.02;;;5.80;99.90;;;;;;5075341;28;20174;-75
2022/12/12 11:13:59;;;;;;;23.20;14.35;;;5.70;99.90;;;;;;5070489;28;20202;-76
2022/12/12 11:16:39;;;;;;;22.85;14.13;;;5.60;99.90;;;;;;5058953;28;20182;-76
2022/12/12 11:19:16;;;;;;;22.92;14.10;;;5.60;99.90;;;;;;5075289;28;20691;-74
2022/12/12 11:21:42;;;;;;;21.77;14.00;;;5.50;99.90;;;;;;5075312;28;20208;-75
2022/12/12 11:24:17;;;;;;;24.58;13.82;;;5.60;99.90;;;;;;5070439;28;20185;-75
2022/12/12 11:26:57;;;;;;;22.13;13.43;;;5.60;99.90;;;;;;5071986;28;20218;-75
2022/12/12 11:29:48;;;;;;;23.20;14.55;;;5.50;99.90;;;;;;5073925;28;20186;-73
2022/12/12 11:32:19;;;;;;;21.38;13.50;;;5.50;99.90;;;;;;5075535;28;20175;-75
2022/12/12 11:34:49;;;;;;;22.30;13.82;;;5.40;99.90;;;;;;5070857;28;20206;-78
2022/12/12 11:37:22;;;;;;;25.02;13.88;;;5.40;99.90;;;;;;5065865;28;20174;-78
2022/12/12 11:39:53;;;;;;;20.75;13.15;;;5.30;99.90;;;;;;5066958;28;20171;-75
2022/12/12 11:42:30;;;;;;;25.67;14.70;;;5.20;99.90;;;;;;5072992;28;20182;-74
2022/12/12 11:45:24;;;;;;;23.88;14.07;;;5.10;99.90;;;;;;5064024;28;20167;-76
2022/12/12 11:47:50;;;;;;;24.95;13.95;;;5.00;99.90;;;;;;5068889;28;20216;-75
2022/12/12 11:50:17;;;;;;;23.17;13.52;;;4.90;99.90;;;;;;5073130;28;20187;-75
2022/12/12 11:52:44;;;;;;;20.85;13.93;;;4.90;99.90;;;;;;5074676;28;20276;-75
2022/12/12 11:55:15;;;;;;;23.02;13.40;;;4.90;99.90;;;;;;5067290;28;20179;-76
2022/12/12 11:58:02;;;;;;;21.92;13.68;;;5.00;99.90;;;;;;5069684;28;20179;-75
2022/12/12 12:00:50;;;;;;;19.23;11.73;;;5.00;99.90;;;;;;5073125;28;20206;-75
2022/12/12 12:03:22;;;;;;;22.55;14.30;;;5.00;99.90;;;;;;5054284;28;20634;-79
2022/12/12 12:06:12;;;;;;;26.63;16.77;;;5.10;99.90;;;;;;5065033;28;20195;-81
2022/12/12 12:09:03;;;;;;;28.83;17.52;;;5.10;99.90;;;;;;5084864;28;20187;-75
2022/12/12 12:11:49;;;;;;;29.55;17.83;;;5.10;99.90;;;;;;5054634;28;20236;-75
2022/12/12 12:14:24;;;;;;;32.28;18.00;;;5.00;99.90;;;;;;5062810;28;20203;-76
2022/12/12 12:17:07;;;;;;;29.52;17.60;;;4.80;99.90;;;;;;5060503;28;20174;-76
2022/12/12 12:19:47;;;;;;;28.80;16.25;;;4.70;99.90;;;;;;5072321;28;20205;-75
2022/12/12 12:22:21;;;;;;;29.55;17.70;;;4.60;99.90;;;;;;5071609;28;20217;-79
2022/12/12 12:25:11;;;;;;;28.15;17.63;;;4.50;99.90;;;;;;5061337;28;20585;-76
2022/12/12 12:27:44;;;;;;;30.23;18.02;;;4.40;99.90;;;;;;5054045;28;20557;-75
2022/12/12 12:30:24;;;;;;;34.03;18.30;;;4.40;99.90;;;;;;5067541;28;20178;-76
2022/12/12 12:32:56;;;;;;;29.30;18.23;;;4.40;99.90;;;;;;5073921;28;20213;-77
2022/12/12 12:35:41;;;;;;;30.48;18.77;;;4.40;99.90;;;;;;5073069;28;20642;-76
2022/12/12 12:38:29;;;;;;;31.25;18.27;;;4.40;99.90;;;;;;5073284;28;20191;-77
2022/12/12 12:40:55;;;;;;;32.15;18.80;;;4.50;99.90;;;;;;5058408;28;20179;-77
2022/12/12 12:43:30;;;;;;;35.50;18.17;;;4.50;99.90;;;;;;5074120;28;20174;-76
2022/12/12 12:46:15;;;;;;;28.02;17.27;;;4.50;99.90;;;;;;5055832;28;20178;-76
2022/12/12 12:48:46;;;;;;;31.23;17.10;;;4.60;99.90;;;;;;5055348;28;20270;-76
2022/12/12 12:51:23;;;;;;;30.17;17.05;;;4.60;99.90;;;;;;5074278;28;20224;-77
2022/12/12 12:54:12;;;;;;;25.83;15.27;;;4.70;99.90;;;;;;5073600;28;20194;-76
2022/12/12 12:57:09;;;;;;;30.02;16.48;;;4.70;99.90;;;;;;5069511;28;20255;-76
2022/12/12 12:59:43;;;;;;;26.20;14.45;;;4.70;99.90;;;;;;5062453;28;20171;-77
2022/12/12 13:02:54;;;;;;;30.50;16.90;;;4.60;99.90;;;;;;5073640;28;20249;-76
2022/12/12 13:05:35;;;;;;;30.63;17.63;;;4.50;99.90;;;;;;5046010;28;20194;-75
2022/12/12 13:08:28;;;;;;;30.80;17.30;;;4.40;99.90;;;;;;5053308;28;20646;-77
2022/12/12 13:11:11;;;;;;;33.50;18.92;;;4.20;99.90;;;;;;5088973;28;20212;-81
2022/12/12 13:13:40;;;;;;;33.03;19.95;;;4.20;99.90;;;;;;5082105;28;20217;-76
2022/12/12 13:16:12;;;;;;;34.25;20.17;;;4.10;99.90;;;;;;5067141;28;20194;-78